Huntington Lake, California
Current Conditions -  °F | °C
As of 10:35 AM on Saturday 25 Oct 2014 (Local Time) from KMMH Reporting Station
Clear Clear  
Wind Chill: 59°   Ceiling: Unl
Heat Index: 59°   Visibility: 10mi
Dew Point:   Wind: 20mph
Humidity: 14%   Direction: 200°SSW
Pressure: 30.14"   Gusts: 31mph
Location:  37.23°N, 119.23°W
Report Text: KMMH 251735Z AUTO 20017G27KT 10SM CLR 15/M13 A3014 RMK AO1
Loading
Personal Weather Stations






























Interactive Weather Map
Tropical Storm Tracking
New forecast layout! Learn more

10-Day Weather Forecast

Advertisements
Track Severe Weather on mobile